Time,TemperatureF,DewpointF,PressureIn,WindDirection,WindDirectionDegrees,WindSpeedMPH,WindSpeedGustMPH,Humidity,HourlyPrecipIn,Conditions,Clouds,dailyrainin,SolarRadiationWatts/m^2,SoftwareType,DateUTC
2013-06-02 00:01:00,68.6,65.2,29.84,South,191,0.0,0.0,89,0.00,RA,,0.00,0.0,WeatherDisplay:10.37,2013-06-02 04:01:00,
2013-06-02 00:02:00,68.6,65.2,29.84,South,191,0.0,0.0,89,0.00,RA,,0.00,0.0,WeatherDisplay:10.37,2013-06-02 04:02:00,
2013-06-02 00:04:00,68.6,65.2,29.84,South,191,0.0,0.0,89,0.00,RA,,0.00,0.0,WeatherDisplay:10.37,2013-06-02 04:04:00,
2013-06-02 00:09:00,68.4,65.0,29.84,South,191,0.0,0.0,89,0.00,RA,,0.00,0.0,WeatherDisplay:10.37,2013-06-02 04:09:00,
2013-06-02 00:14:00,68.3,65.3,29.83,South,191,0.0,0.0,90,0.00,BKN,,0.00,0.0,WeatherDisplay:10.37,2013-06-02 04:14:00,
2013-06-02 00:19:00,68.1,65.1,29.83,South,191,0.0,0.0,90,0.00,BKN,,0.00,0.0,WeatherDisplay:10.37,2013-06-02 04:19:00,
2013-06-02 00:24:00,67.9,64.9,29.83,South,191,0.0,0.0,90,0.00,BKN,,0.00,0.0,WeatherDisplay:10.37,2013-06-02 04:24:00,
2013-06-02 00:29:00,67.8,64.8,29.83,South,191,0.0,0.0,90,0.00,BKN,,0.00,0.0,WeatherDisplay:10.37,2013-06-02 04:29:00,
2013-06-02 00:34:00,67.6,64.6,29.83,South,191,0.0,0.0,90,0.00,BKN,,0.00,0.0,WeatherDisplay:10.37,2013-06-02 04:34:00,
2013-06-02 00:39:00,67.4,64.7,29.83,South,191,0.0,0.0,91,0.00,BKN,,0.00,0.0,WeatherDisplay:10.37,2013-06-02 04:39:00,
2013-06-02 00:44:00,67.3,64.6,29.82,South,191,0.0,0.0,91,0.00,BKN,,0.00,0.0,WeatherDisplay:10.37,2013-06-02 04:44:00,
2013-06-02 00:49:00,67.1,64.4,29.82,South,191,0.0,0.0,91,0.00,BKN,,0.00,0.0,WeatherDisplay:10.37,2013-06-02 04:49:00,
2013-06-02 00:54:00,66.9,64.5,29.82,South,191,0.0,0.0,92,0.00,BKN,,0.00,0.0,WeatherDisplay:10.37,2013-06-02 04:54:00,
2013-06-02 00:59:00,66.8,64.4,29.81,South,191,0.0,0.0,92,0.00,BKN,,0.00,0.0,WeatherDisplay:10.37,2013-06-02 04:59:00,
2013-06-02 01:04:00,66.4,64.0,29.81,South,191,0.0,0.0,92,0.00,CLR,,0.00,0.0,WeatherDisplay:10.37,2013-06-02 05:04:00,
2013-06-02 01:09:00,66.4,64.0,29.81,South,191,0.0,0.0,92,0.00,CLR,,0.00,0.0,WeatherDisplay:10.37,2013-06-02 05:09:00,
2013-06-02 01:14:00,66.3,63.9,29.81,South,191,0.0,0.0,92,0.00,CLR,,0.00,0.0,WeatherDisplay:10.37,2013-06-02 05:14:00,
2013-06-02 01:19:00,66.3,63.9,29.81,South,191,0.0,0.0,92,0.00,CLR,,0.00,0.0,WeatherDisplay:10.37,2013-06-02 05:19:00,
2013-06-02 01:24:00,66.1,63.7,29.81,South,191,1.0,1.0,92,0.00,CLR,,0.00,0.0,WeatherDisplay:10.37,2013-06-02 05:24:00,
2013-06-02 01:29:00,66.0,63.9,29.80,South,191,0.0,0.0,93,0.00,CLR,,0.00,0.0,WeatherDisplay:10.37,2013-06-02 05:29:00,
2013-06-02 01:34:00,66.0,63.9,29.80,South,191,0.0,0.0,93,0.00,CLR,,0.00,0.0,WeatherDisplay:10.37,2013-06-02 05:34:00,
2013-06-02 01:39:00,65.8,63.7,29.80,South,191,1.2,1.2,93,0.00,CLR,,0.00,0.0,WeatherDisplay:10.37,2013-06-02 05:39:00,
2013-06-02 01:44:00,65.8,63.7,29.80,South,191,1.0,0.0,93,0.00,CLR,,0.00,0.0,WeatherDisplay:10.37,2013-06-02 05:44:00,
2013-06-02 01:49:00,65.6,63.5,29.80,South,191,0.0,0.0,93,0.00,CLR,,0.00,0.0,WeatherDisplay:10.37,2013-06-02 05:49:00,
2013-06-02 01:54:00,65.3,63.2,29.80,South,191,0.0,0.0,93,0.00,CLR,,0.00,0.0,WeatherDisplay:10.37,2013-06-02 05:54:00,
2013-06-02 01:59:00,65.2,63.1,29.79,SSE,154,1.2,0.0,93,0.00,CLR,,0.00,0.0,WeatherDisplay:10.37,2013-06-02 05:59:00,
2013-06-02 02:04:00,65.2,63.4,29.79,SSE,147,0.0,0.0,94,0.00,CLR,,0.00,0.0,WeatherDisplay:10.37,2013-06-02 06:04:00,
2013-06-02 02:09:00,65.3,63.5,29.79,SSE,147,1.2,1.2,94,0.00,CLR,,0.00,0.0,WeatherDisplay:10.37,2013-06-02 06:09:00,
2013-06-02 02:14:00,65.3,63.5,29.79,SE,146,3.5,3.5,94,0.00,CLR,,0.00,0.0,WeatherDisplay:10.37,2013-06-02 06:14:00,
2013-06-02 02:19:00,65.5,63.7,29.79,SE,130,3.5,3.5,94,0.00,CLR,,0.00,0.0,WeatherDisplay:10.37,2013-06-02 06:19:00,
2013-06-02 02:24:00,65.6,63.8,29.79,SE,132,4.6,4.6,94,0.00,CLR,,0.00,0.0,WeatherDisplay:10.37,2013-06-02 06:24:00,
2013-06-02 02:29:00,65.8,64.0,29.78,SE,132,2.3,2.3,94,0.00,CLR,,0.00,0.0,WeatherDisplay:10.37,2013-06-02 06:29:00,
2013-06-02 06:06:00,73.2,65.9,29.71,SE,124,17.3,17.3,78,0.00,CLR,,0.00,25.0,WeatherDisplay:10.37,2013-06-02 10:06:00,
2013-06-02 06:11:00,73.3,66.0,29.71,SSE,156,9.2,9.2,78,0.00,CLR,,0.00,30.0,WeatherDisplay:10.37,2013-06-02 10:11:00,
2013-06-02 06:16:00,73.3,66.0,29.71,ESE,110,10.4,10.4,78,0.00,CLR,,0.00,32.0,WeatherDisplay:10.37,2013-06-02 10:16:00,
2013-06-02 06:21:00,73.3,66.0,29.71,SSE,150,10.4,10.4,78,0.00,CLR,,0.00,35.0,WeatherDisplay:10.37,2013-06-02 10:21:00,
2013-06-02 06:26:00,73.3,66.0,29.71,SE,143,10.0,10.0,78,0.00,CLR,,0.00,42.0,WeatherDisplay:10.37,2013-06-02 10:26:00,
2013-06-02 06:31:00,73.5,66.2,29.71,SE,146,14.0,14.0,78,0.00,CLR,,0.00,47.0,WeatherDisplay:10.37,2013-06-02 10:31:00,
2013-06-02 06:36:00,73.7,66.4,29.71,SSE,158,11.5,11.5,78,0.00,CLR,,0.00,69.0,WeatherDisplay:10.37,2013-06-02 10:36:00,
2013-06-02 06:41:00,73.9,66.2,29.71,SSE,152,12.0,12.0,77,0.00,CLR,,0.00,51.0,WeatherDisplay:10.37,2013-06-02 10:41:00,
2013-06-02 06:46:00,73.9,66.6,29.71,South,172,11.5,11.5,78,0.00,CLR,,0.00,40.0,WeatherDisplay:10.37,2013-06-02 10:46:00,
2013-06-02 06:51:00,73.9,66.6,29.71,South,175,9.2,9.2,78,0.00,CLR,,0.00,58.0,WeatherDisplay:10.37,2013-06-02 10:51:00,
2013-06-02 06:56:00,73.9,66.2,29.71,SE,136,11.5,11.5,77,0.00,CLR,,0.00,77.0,WeatherDisplay:10.37,2013-06-02 10:56:00,
2013-06-02 07:01:00,74.0,66.3,29.71,SSE,156,12.0,12.0,77,0.00,CLR,,0.00,90.0,WeatherDisplay:10.37,2013-06-02 11:01:00,
2013-06-02 07:06:00,74.2,66.5,29.71,SSE,163,11.5,11.5,77,0.00,OVC,,0.00,132.0,WeatherDisplay:10.37,2013-06-02 11:06:00,
2013-06-02 07:11:00,74.4,66.7,29.74,WSW,257,7.0,7.0,77,0.00,OVC,,0.00,63.0,WeatherDisplay:10.37,2013-06-02 11:11:00,
2013-06-02 07:16:00,74.6,66.9,29.74,SSE,155,7.0,7.0,77,0.00,OVC,,0.00,54.0,WeatherDisplay:10.37,2013-06-02 11:16:00,
2013-06-02 07:21:00,74.4,67.1,29.74,SSW,205,4.0,4.0,78,0.00,OVC,,0.00,18.0,WeatherDisplay:10.37,2013-06-02 11:21:00,
2013-06-02 07:26:00,74.2,66.9,29.74,West,273,4.6,4.6,78,0.00,OVC,,0.00,28.0,WeatherDisplay:10.37,2013-06-02 11:26:00,
2013-06-02 07:31:00,74.0,66.7,29.74,NW,308,13.0,13.0,78,0.00,OVC,,0.00,19.0,WeatherDisplay:10.37,2013-06-02 11:31:00,
2013-06-02 07:36:00,73.7,67.1,29.74,WNW,289,13.0,13.0,80,0.00,OVC,,0.00,58.0,WeatherDisplay:10.37,2013-06-02 11:36:00,
2013-06-02 07:41:00,73.3,67.1,29.76,West,278,11.5,11.5,81,0.00,OVC,,0.00,91.0,WeatherDisplay:10.37,2013-06-02 11:41:00,
2013-06-02 07:46:00,72.8,66.6,29.76,NW,318,7.0,7.0,81,0.00,OVC,,0.00,69.0,WeatherDisplay:10.37,2013-06-02 11:46:00,
2013-06-02 07:51:00,72.7,66.9,29.76,West,276,6.0,6.0,82,0.00,OVC,,0.00,142.0,WeatherDisplay:10.37,2013-06-02 11:51:00,
2013-06-02 07:56:00,72.5,66.7,29.75,West,262,4.0,4.0,82,0.00,OVC,,0.00,97.0,WeatherDisplay:10.37,2013-06-02 11:56:00,
2013-06-02 08:01:00,72.5,66.7,29.75,SSW,206,3.5,0.0,82,0.00,OVC,,0.00,88.0,WeatherDisplay:10.37,2013-06-02 12:01:00,
2013-06-02 08:06:00,72.5,66.7,29.75,SSE,167,1.2,0.0,82,0.00,OVC,,0.00,179.0,WeatherDisplay:10.37,2013-06-02 12:06:00,
2013-06-02 08:11:00,72.7,66.9,29.76,SW,231,1.0,0.0,82,0.00,OVC,,0.00,237.0,WeatherDisplay:10.37,2013-06-02 12:11:00,
2013-06-02 08:16:00,73.3,66.0,29.76,SW,227,6.0,6.0,78,0.00,OVC,,0.00,255.0,WeatherDisplay:10.37,2013-06-02 12:16:00,
2013-06-02 08:21:00,74.0,64.8,29.76,SSE,158,6.0,6.0,73,0.00,OVC,,0.00,272.0,WeatherDisplay:10.37,2013-06-02 12:21:00,
2013-06-02 08:26:00,74.6,64.2,29.75,SW,225,1.2,1.2,70,0.00,OVC,,0.00,246.0,WeatherDisplay:10.37,2013-06-02 12:26:00,
2013-06-02 08:31:00,75.1,65.1,29.75,WSW,251,2.3,0.0,71,0.00,OVC,,0.00,506.0,WeatherDisplay:10.37,2013-06-02 12:31:00,
2013-06-02 08:36:00,76.0,64.7,29.75,WSW,251,0.0,0.0,68,0.00,OVC,,0.00,306.0,WeatherDisplay:10.37,2013-06-02 12:36:00,
2013-06-02 08:41:00,76.5,63.4,29.74,West,267,1.2,1.2,64,0.00,OVC,,0.00,308.0,WeatherDisplay:10.37,2013-06-02 12:41:00,
2013-06-02 08:46:00,76.8,63.7,29.74,West,268,1.2,0.0,64,0.00,OVC,,0.00,244.0,WeatherDisplay:10.37,2013-06-02 12:46:00,
2013-06-02 08:51:00,77.0,65.2,29.74,South,190,2.0,2.0,67,0.00,OVC,,0.00,279.0,WeatherDisplay:10.37,2013-06-02 12:51:00,
2013-06-02 08:56:00,77.2,64.1,29.74,SW,234,1.2,1.2,64,0.00,OVC,,0.00,272.0,WeatherDisplay:10.37,2013-06-02 12:56:00,
2013-06-02 09:01:00,77.2,63.6,29.74,SW,216,4.0,4.0,63,0.00,OVC,,0.00,251.0,WeatherDisplay:10.37,2013-06-02 13:01:00,
2013-06-02 09:06:00,77.4,66.0,29.74,SSW,206,0.0,0.0,68,0.00,OVC,,0.00,315.0,WeatherDisplay:10.37,2013-06-02 13:06:00,
2013-06-02 09:11:00,77.7,65.9,29.74,NE,56,0.0,0.0,67,0.00,OVC,,0.00,441.0,WeatherDisplay:10.37,2013-06-02 13:11:00,
2013-06-02 09:16:00,77.9,64.3,29.74,NE,56,0.0,0.0,63,0.00,FEW,,0.00,258.0,WeatherDisplay:10.37,2013-06-02 13:16:00,
2013-06-02 09:21:00,78.3,65.6,29.74,NE,56,1.2,1.2,65,0.00,FEW,,0.00,211.0,WeatherDisplay:10.37,2013-06-02 13:21:00,
2013-06-02 09:26:00,77.9,64.7,29.74,NE,56,1.0,1.0,64,0.00,FEW,,0.00,172.0,WeatherDisplay:10.37,2013-06-02 13:26:00,
2013-06-02 09:31:00,77.7,66.7,29.74,NE,56,0.0,0.0,69,0.00,FEW,,0.00,116.0,WeatherDisplay:10.37,2013-06-02 13:31:00,
2013-06-02 09:36:00,77.6,67.9,29.74,NE,56,0.0,0.0,72,0.00,FEW,,0.00,62.0,WeatherDisplay:10.37,2013-06-02 13:36:00,
2013-06-02 09:41:00,77.0,66.9,29.74,NE,56,0.0,0.0,71,0.00,FEW,,0.00,111.0,WeatherDisplay:10.37,2013-06-02 13:41:00,
2013-06-02 09:46:00,76.8,67.9,29.74,NE,56,0.0,0.0,74,0.00,FEW,,0.00,116.0,WeatherDisplay:10.37,2013-06-02 13:46:00,
2013-06-02 09:51:00,76.7,68.2,29.74,NE,56,0.0,0.0,75,0.00,FEW,,0.00,127.0,WeatherDisplay:10.37,2013-06-02 13:51:00,
2013-06-02 09:56:00,76.5,68.4,29.74,North,7,2.0,2.0,76,0.00,FEW,,0.00,149.0,WeatherDisplay:10.37,2013-06-02 13:56:00,
2013-06-02 10:01:00,76.5,68.0,29.74,North,4,1.2,0.0,75,0.00,OVC,,0.00,151.0,WeatherDisplay:10.37,2013-06-02 14:01:00,
2013-06-02 10:06:00,76.3,67.4,29.74,NNW,345,2.3,2.3,74,0.00,OVC,,0.00,155.0,WeatherDisplay:10.37,2013-06-02 14:06:00,
2013-06-02 10:11:00,76.3,67.0,29.74,NNW,345,3.5,3.5,73,0.00,OVC,,0.00,183.0,WeatherDisplay:10.37,2013-06-02 14:11:00,
2013-06-02 10:16:00,76.5,67.6,29.74,NNW,342,1.2,0.0,74,0.00,OVC,,0.00,313.0,WeatherDisplay:10.37,2013-06-02 14:16:00,
2013-06-02 10:21:00,76.5,66.8,29.74,NNW,342,1.2,1.2,72,0.00,OVC,,0.00,251.0,WeatherDisplay:10.37,2013-06-02 14:21:00,
2013-06-02 10:26:00,76.8,67.9,29.74,NNW,342,1.2,0.0,74,0.00,OVC,,0.00,304.0,WeatherDisplay:10.37,2013-06-02 14:26:00,
2013-06-02 10:31:00,77.0,66.5,29.74,NNW,343,0.0,0.0,70,0.00,OVC,,0.00,294.0,WeatherDisplay:10.37,2013-06-02 14:31:00,
2013-06-02 10:36:00,77.4,67.3,29.74,NNW,343,0.0,0.0,71,0.00,OVC,,0.00,195.0,WeatherDisplay:10.37,2013-06-02 14:36:00,
2013-06-02 10:41:00,77.7,67.5,29.74,NNW,342,1.2,1.2,71,0.00,OVC,,0.00,246.0,WeatherDisplay:10.37,2013-06-02 14:41:00,
2013-06-02 10:46:00,77.9,68.1,29.74,NNW,342,1.0,0.0,72,0.00,OVC,,0.00,185.0,WeatherDisplay:10.37,2013-06-02 14:46:00,
2013-06-02 10:51:00,77.4,66.4,29.74,NNW,342,0.0,0.0,69,0.00,OVC,,0.00,97.0,WeatherDisplay:10.37,2013-06-02 14:51:00,
2013-06-02 10:56:00,77.2,67.5,29.74,NNW,342,1.2,1.2,72,0.00,OVC,,0.00,109.0,WeatherDisplay:10.37,2013-06-02 14:56:00,
2013-06-02 11:01:00,77.0,68.5,29.74,NNW,342,0.0,0.0,75,0.00,OVC,,0.00,202.0,WeatherDisplay:10.37,2013-06-02 15:01:00,
2013-06-02 11:06:00,77.0,69.6,29.74,NNW,342,0.0,0.0,78,0.00,OVC,,0.00,156.0,WeatherDisplay:10.37,2013-06-02 15:06:00,
2013-06-02 11:11:00,77.0,69.6,29.74,NNW,342,0.0,0.0,78,0.00,OVC,,0.00,178.0,WeatherDisplay:10.37,2013-06-02 15:11:00,
2013-06-02 11:16:00,76.5,69.5,29.74,NNW,342,0.0,0.0,79,0.00,OVC,,0.00,220.0,WeatherDisplay:10.37,2013-06-02 15:16:00,
2013-06-02 11:21:00,76.1,69.8,29.74,NNW,342,0.0,0.0,81,0.00,OVC,,0.00,199.0,WeatherDisplay:10.37,2013-06-02 15:21:00,
2013-06-02 11:26:00,76.0,69.7,29.74,NNW,342,0.0,0.0,81,0.00,OVC,,0.00,172.0,WeatherDisplay:10.37,2013-06-02 15:26:00,
2013-06-02 11:31:00,76.1,70.2,29.74,NNW,342,0.0,0.0,82,0.00,OVC,,0.00,206.0,WeatherDisplay:10.37,2013-06-02 15:31:00,
2013-06-02 11:36:00,76.3,70.0,29.74,NNW,342,1.2,0.0,81,0.00,OVC,,0.01,334.0,WeatherDisplay:10.37,2013-06-02 15:36:00,
2013-06-02 11:41:00,76.5,70.6,29.74,NNW,342,0.0,0.0,82,0.01,RA,,0.01,193.0,WeatherDisplay:10.37,2013-06-02 15:41:00,
2013-06-02 11:46:00,76.5,69.9,29.74,NNW,343,0.0,0.0,80,0.01,RA,,0.01,132.0,WeatherDisplay:10.37,2013-06-02 15:46:00,
2013-06-02 11:51:00,76.8,70.9,29.74,NNW,343,0.0,0.0,82,0.01,OVC,,0.01,121.0,WeatherDisplay:10.37,2013-06-02 15:51:00,
2013-06-02 11:56:00,76.8,70.9,29.74,NNW,342,0.0,0.0,82,0.01,OVC,,0.01,121.0,WeatherDisplay:10.37,2013-06-02 15:56:00,
2013-06-02 12:01:00,76.7,70.8,29.74,NNW,329,2.3,2.3,82,0.01,OVC,,0.01,125.0,WeatherDisplay:10.37,2013-06-02 16:01:00,
2013-06-02 12:06:00,76.0,69.7,29.74,WNW,293,1.2,1.2,81,0.01,-RA,,0.01,72.0,WeatherDisplay:10.37,2013-06-02 16:06:00,
2013-06-02 12:11:00,75.8,69.9,29.75,WNW,293,0.0,0.0,82,0.01,-RA,,0.01,53.0,WeatherDisplay:10.37,2013-06-02 16:11:00,
2013-06-02 12:16:00,75.4,69.9,29.75,WNW,293,0.0,0.0,83,0.01,-RA,,0.01,33.0,WeatherDisplay:10.37,2013-06-02 16:16:00,
2013-06-02 12:21:00,74.9,69.7,29.75,WNW,293,1.2,1.2,84,0.01,-RA,,0.01,40.0,WeatherDisplay:10.37,2013-06-02 16:21:00,
2013-06-02 12:26:00,74.4,69.6,29.76,WSW,252,1.0,0.0,85,0.01,-RA,,0.01,81.0,WeatherDisplay:10.37,2013-06-02 16:26:00,
2013-06-02 12:31:00,74.0,69.5,29.76,WSW,252,1.2,1.2,86,0.01,-RA,,0.01,330.0,WeatherDisplay:10.37,2013-06-02 16:31:00,
2013-06-02 12:36:00,74.4,70.3,29.76,WSW,251,1.2,0.0,87,0.01,-RA,,0.01,601.0,WeatherDisplay:10.37,2013-06-02 16:36:00,
2013-06-02 12:41:00,75.1,71.3,29.76,WSW,249,0.0,0.0,88,0.00,-RA,,0.01,320.0,WeatherDisplay:10.37,2013-06-02 16:41:00,
2013-06-02 12:46:00,75.1,70.3,29.76,South,178,5.0,5.0,85,0.00,-RA,,0.01,178.0,WeatherDisplay:10.37,2013-06-02 16:46:00,
2013-06-02 12:51:00,75.1,69.9,29.76,South,182,1.2,1.2,84,0.00,-RA,,0.01,155.0,WeatherDisplay:10.37,2013-06-02 16:51:00,
2013-06-02 12:56:00,74.9,69.0,29.76,NNE,28,6.0,6.0,82,0.00,-RA,,0.01,79.0,WeatherDisplay:10.37,2013-06-02 16:56:00,
2013-06-02 13:01:00,74.7,68.5,29.76,SSE,159,4.0,4.0,81,0.00,-RA,,0.01,195.0,WeatherDisplay:10.37,2013-06-02 17:01:00,
2013-06-02 13:06:00,74.6,68.0,29.76,SE,146,4.6,4.6,80,0.00,BKN,,0.01,244.0,WeatherDisplay:10.37,2013-06-02 17:06:00,
2013-06-02 13:11:00,74.6,67.3,29.75,SSE,158,4.6,4.6,78,0.00,BKN,,0.01,253.0,WeatherDisplay:10.37,2013-06-02 17:11:00,
2013-06-02 13:16:00,75.1,68.1,29.75,SSW,207,2.3,2.3,79,0.00,BKN,,0.01,396.0,WeatherDisplay:10.37,2013-06-02 17:16:00,
2013-06-02 13:21:00,75.4,67.7,29.75,SW,222,3.5,3.5,77,0.00,BKN,,0.01,431.0,WeatherDisplay:10.37,2013-06-02 17:21:00,
2013-06-02 13:26:00,76.0,68.3,29.75,WNW,298,4.0,4.0,77,0.00,BKN,,0.01,515.0,WeatherDisplay:10.37,2013-06-02 17:26:00,
2013-06-02 13:31:00,76.8,67.9,29.75,West,272,6.0,6.0,74,0.00,BKN,,0.01,659.0,WeatherDisplay:10.37,2013-06-02 17:31:00,
2013-06-02 13:36:00,77.7,68.0,29.75,SSE,166,6.0,6.0,72,0.00,BKN,,0.01,677.0,WeatherDisplay:10.37,2013-06-02 17:36:00,
2013-06-02 13:41:00,78.3,66.9,29.74,SW,229,10.0,10.0,68,0.00,BKN,,0.01,677.0,WeatherDisplay:10.37,2013-06-02 17:41:00,
2013-06-02 13:46:00,79.2,67.7,29.74,West,279,9.2,9.2,68,0.00,BKN,,0.01,468.0,WeatherDisplay:10.37,2013-06-02 17:46:00,
2013-06-02 13:51:00,79.4,66.6,29.74,West,272,7.0,7.0,65,0.00,BKN,,0.01,399.0,WeatherDisplay:10.37,2013-06-02 17:51:00,
2013-06-02 13:57:00,79.2,66.9,29.74,SW,229,11.5,11.5,66,0.00,BKN,,0.01,297.0,WeatherDisplay:10.37,2013-06-02 17:57:00,
2013-06-02 14:02:00,79.2,66.9,29.74,ESE,110,4.0,4.0,66,0.00,FEW,,0.01,791.0,WeatherDisplay:10.37,2013-06-02 18:02:00,
2013-06-02 14:07:00,79.8,66.5,29.74,West,274,12.7,12.7,64,0.00,FEW,,0.01,656.0,WeatherDisplay:10.37,2013-06-02 18:07:00,
2013-06-02 14:12:00,79.9,66.2,29.73,SW,217,19.0,19.0,63,0.00,FEW,,0.01,733.0,WeatherDisplay:10.37,2013-06-02 18:12:00,
2013-06-02 14:17:00,79.9,66.2,29.73,South,173,5.0,5.0,63,0.00,FEW,,0.01,418.0,WeatherDisplay:10.37,2013-06-02 18:17:00,
2013-06-02 14:22:00,79.4,66.2,29.73,West,274,7.0,7.0,64,0.00,FEW,,0.01,508.0,WeatherDisplay:10.37,2013-06-02 18:22:00,
2013-06-02 14:27:00,79.2,66.0,29.73,West,268,7.0,7.0,64,0.00,FEW,,0.01,483.0,WeatherDisplay:10.37,2013-06-02 18:27:00,
2013-06-02 14:32:00,79.2,66.4,29.73,NW,326,3.0,3.0,65,0.00,FEW,,0.01,450.0,WeatherDisplay:10.37,2013-06-02 18:32:00,
2013-06-02 14:37:00,79.4,67.0,29.73,WNW,303,4.0,4.0,66,0.00,FEW,,0.01,413.0,WeatherDisplay:10.37,2013-06-02 18:37:00,
2013-06-02 14:42:00,79.4,66.2,29.73,NW,308,9.2,9.2,64,0.00,FEW,,0.01,445.0,WeatherDisplay:10.37,2013-06-02 18:42:00,
2013-06-02 14:47:00,79.2,66.0,29.73,WSW,241,9.2,9.2,64,0.00,FEW,,0.01,457.0,WeatherDisplay:10.37,2013-06-02 18:47:00,
2013-06-02 14:52:00,79.0,65.8,29.73,West,272,3.5,3.5,64,0.00,FEW,,0.01,411.0,WeatherDisplay:10.37,2013-06-02 18:52:00,
2013-06-02 14:57:00,79.0,65.8,29.73,SW,220,1.2,0.0,64,0.00,FEW,,0.01,429.0,WeatherDisplay:10.37,2013-06-02 18:57:00,
2013-06-02 15:02:00,79.0,66.2,29.73,South,191,3.5,3.5,65,0.00,BKN,,0.01,417.0,WeatherDisplay:10.37,2013-06-02 19:02:00,
2013-06-02 15:07:00,79.2,66.0,29.73,WSW,240,12.0,12.0,64,0.00,BKN,,0.01,663.0,WeatherDisplay:10.37,2013-06-02 19:07:00,
2013-06-02 15:12:00,79.8,66.1,29.73,WSW,239,2.3,2.3,63,0.00,BKN,,0.01,515.0,WeatherDisplay:10.37,2013-06-02 19:12:00,
2013-06-02 15:17:00,80.1,65.9,29.73,South,177,3.5,3.5,62,0.00,BKN,,0.01,554.0,WeatherDisplay:10.37,2013-06-02 19:17:00,
2013-06-02 15:22:00,80.1,65.9,29.73,SSW,200,10.0,10.0,62,0.00,BKN,,0.01,578.0,WeatherDisplay:10.37,2013-06-02 19:22:00,
2013-06-02 15:27:00,79.9,65.2,29.72,West,273,14.0,14.0,61,0.00,BKN,,0.01,436.0,WeatherDisplay:10.37,2013-06-02 19:27:00,
2013-06-02 15:32:00,79.9,66.6,29.72,SSE,163,6.0,6.0,64,0.00,BKN,,0.01,413.0,WeatherDisplay:10.37,2013-06-02 19:32:00,
2013-06-02 15:37:00,79.9,66.2,29.72,WSW,242,9.2,9.2,63,0.00,BKN,,0.01,909.0,WeatherDisplay:10.37,2013-06-02 19:37:00,
2013-06-02 15:42:00,80.5,67.2,29.71,SSW,196,13.0,13.0,64,0.00,BKN,,0.01,912.0,WeatherDisplay:10.37,2013-06-02 19:42:00,
2013-06-02 15:47:00,80.9,64.7,29.71,South,180,10.4,10.4,58,0.00,BKN,,0.01,803.0,WeatherDisplay:10.37,2013-06-02 19:47:00,
2013-06-02 15:52:00,81.2,65.5,29.71,SW,228,10.4,10.4,59,0.00,BKN,,0.01,715.0,WeatherDisplay:10.37,2013-06-02 19:52:00,
2013-06-02 15:57:00,81.6,63.9,29.71,South,187,11.5,11.5,55,0.00,BKN,,0.01,570.0,WeatherDisplay:10.37,2013-06-02 19:57:00,
2013-06-02 16:02:00,81.4,64.2,29.71,SW,225,12.0,12.0,56,0.00,BKN,,0.01,327.0,WeatherDisplay:10.37,2013-06-02 20:02:00,
2013-06-02 16:07:00,81.4,66.2,29.71,SSE,160,11.5,11.5,60,0.00,BKN,,0.01,895.0,WeatherDisplay:10.37,2013-06-02 20:07:00,
2013-06-02 16:12:00,81.6,64.4,29.71,SSE,165,18.0,18.0,56,0.00,CLR,,0.01,803.0,WeatherDisplay:10.37,2013-06-02 20:12:00,
2013-06-02 16:17:00,81.6,62.3,29.71,SE,146,12.0,12.0,52,0.00,CLR,,0.01,199.0,WeatherDisplay:10.37,2013-06-02 20:17:00,
2013-06-02 16:22:00,81.1,63.9,29.71,SSW,213,11.5,11.5,56,0.00,CLR,,0.01,311.0,WeatherDisplay:10.37,2013-06-02 20:22:00,
2013-06-02 16:27:00,80.5,62.3,29.70,South,191,12.0,12.0,54,0.00,CLR,,0.01,241.0,WeatherDisplay:10.37,2013-06-02 20:27:00,
2013-06-02 16:32:00,80.1,63.0,29.70,WSW,247,7.0,7.0,56,0.00,CLR,,0.01,190.0,WeatherDisplay:10.37,2013-06-02 20:32:00,
2013-06-02 16:37:00,80.1,63.0,29.70,NW,312,14.0,14.0,56,0.00,CLR,,0.01,178.0,WeatherDisplay:10.37,2013-06-02 20:37:00,
2013-06-02 16:42:00,79.9,62.8,29.70,WSW,247,10.4,10.4,56,0.00,CLR,,0.01,225.0,WeatherDisplay:10.37,2013-06-02 20:42:00,
2013-06-02 16:47:00,79.9,63.8,29.70,NNW,337,14.0,14.0,58,0.00,CLR,,0.01,823.0,WeatherDisplay:10.37,2013-06-02 20:47:00,
2013-06-02 16:52:00,80.3,63.7,29.70,NW,322,15.0,15.0,57,0.00,CLR,,0.01,645.0,WeatherDisplay:10.37,2013-06-02 20:52:00,
2013-06-02 16:57:00,80.7,63.5,29.71,NNW,328,14.0,14.0,56,0.00,CLR,,0.01,615.0,WeatherDisplay:10.37,2013-06-02 20:57:00,
2013-06-02 17:02:00,80.7,64.1,29.71,NW,318,11.5,11.5,57,0.00,FEW,,0.01,197.0,WeatherDisplay:10.37,2013-06-02 21:02:00,
2013-06-02 17:07:00,80.3,64.7,29.71,WNW,290,12.0,12.0,59,0.00,FEW,,0.01,207.0,WeatherDisplay:10.37,2013-06-02 21:07:00,
2013-06-02 17:12:00,79.8,64.2,29.71,NW,323,16.1,16.1,59,0.00,FEW,,0.01,137.0,WeatherDisplay:10.37,2013-06-02 21:12:00,
2013-06-02 17:17:00,78.6,64.5,29.71,NNW,345,16.0,16.0,62,0.00,FEW,,0.01,116.0,WeatherDisplay:10.37,2013-06-02 21:17:00,
2013-06-02 17:22:00,77.6,64.5,29.71,NW,326,14.0,14.0,64,0.00,FEW,,0.01,102.0,WeatherDisplay:10.37,2013-06-02 21:22:00,
2013-06-02 17:27:00,77.0,64.8,29.73,North,5,15.0,15.0,66,0.00,FEW,,0.01,137.0,WeatherDisplay:10.37,2013-06-02 21:27:00,
2013-06-02 17:32:00,76.5,64.7,29.73,NW,304,12.0,12.0,67,0.00,FEW,,0.01,246.0,WeatherDisplay:10.37,2013-06-02 21:32:00,
2013-06-02 17:37:00,76.5,64.7,29.73,WNW,293,14.0,14.0,67,0.00,FEW,,0.01,334.0,WeatherDisplay:10.37,2013-06-02 21:37:00,
2013-06-02 17:42:00,77.0,65.2,29.73,NW,307,11.5,11.5,67,0.00,FEW,,0.01,526.0,WeatherDisplay:10.37,2013-06-02 21:42:00,
2013-06-02 17:47:00,77.7,65.9,29.73,WNW,293,14.0,14.0,67,0.00,FEW,,0.01,455.0,WeatherDisplay:10.37,2013-06-02 21:47:00,
2013-06-02 17:52:00,77.6,65.3,29.73,WNW,293,11.5,11.5,66,0.00,FEW,,0.01,234.0,WeatherDisplay:10.37,2013-06-02 21:52:00,
2013-06-02 17:57:00,77.0,65.2,29.74,NW,319,11.5,11.5,67,0.00,FEW,,0.01,438.0,WeatherDisplay:10.37,2013-06-02 21:57:00,
2013-06-02 18:02:00,76.8,65.4,29.74,NW,320,12.7,12.7,68,0.00,BKN,,0.01,374.0,WeatherDisplay:10.37,2013-06-02 22:02:00,
2013-06-02 18:07:00,76.8,65.9,29.74,WNW,303,12.0,12.0,69,0.00,BKN,,0.01,350.0,WeatherDisplay:10.37,2013-06-02 22:07:00,
2013-06-02 18:12:00,76.7,65.3,29.73,NW,323,16.1,16.1,68,0.00,BKN,,0.01,367.0,WeatherDisplay:10.37,2013-06-02 22:12:00,
2013-06-02 18:17:00,76.1,64.8,29.73,WNW,283,12.0,12.0,68,0.00,BKN,,0.01,167.0,WeatherDisplay:10.37,2013-06-02 22:17:00,
2013-06-02 18:22:00,75.6,65.1,29.73,NW,317,4.0,4.0,70,0.00,BKN,,0.01,396.0,WeatherDisplay:10.37,2013-06-02 22:22:00,
2013-06-02 18:27:00,75.6,65.5,29.74,NW,310,4.0,4.0,71,0.00,BKN,,0.01,77.0,WeatherDisplay:10.37,2013-06-02 22:27:00,
2013-06-02 18:32:00,75.4,64.9,29.74,WNW,300,8.0,8.0,70,0.00,BKN,,0.01,81.0,WeatherDisplay:10.37,2013-06-02 22:32:00,
2013-06-02 18:37:00,75.1,65.1,29.74,NNW,329,3.5,3.5,71,0.00,BKN,,0.01,49.0,WeatherDisplay:10.37,2013-06-02 22:37:00,
2013-06-02 18:42:00,74.6,64.6,29.74,WNW,300,11.5,11.5,71,0.00,BKN,,0.01,53.0,WeatherDisplay:10.37,2013-06-02 22:42:00,
2013-06-02 18:47:00,74.2,64.6,29.74,WNW,303,4.0,4.0,72,0.00,BKN,,0.01,69.0,WeatherDisplay:10.37,2013-06-02 22:47:00,
2013-06-02 18:52:00,74.0,64.8,29.74,WNW,301,3.0,3.0,73,0.00,BKN,,0.01,70.0,WeatherDisplay:10.37,2013-06-02 22:52:00,
2013-06-02 18:57:00,73.9,64.7,29.74,WNW,286,3.0,3.0,73,0.00,BKN,,0.01,58.0,WeatherDisplay:10.37,2013-06-02 22:57:00,
2013-06-02 19:02:00,73.7,64.5,29.74,WNW,284,3.5,3.5,73,0.00,BKN,,0.01,26.0,WeatherDisplay:10.37,2013-06-02 23:02:00,
2013-06-02 19:07:00,73.7,64.5,29.74,WNW,290,4.0,4.0,73,0.00,BKN,,0.01,14.0,WeatherDisplay:10.37,2013-06-02 23:07:00,
2013-06-02 19:12:00,73.5,65.1,29.75,SW,222,3.5,3.5,75,0.00,BKN,,0.01,9.0,WeatherDisplay:10.37,2013-06-02 23:12:00,
2013-06-02 19:17:00,73.0,65.4,29.75,SW,220,8.1,8.1,77,0.02,RA,,0.03,9.0,WeatherDisplay:10.37,2013-06-02 23:17:00,
2013-06-02 19:22:00,72.3,65.1,29.75,SW,220,1.2,1.2,78,0.03,RA,,0.04,11.0,WeatherDisplay:10.37,2013-06-02 23:22:00,
2013-06-02 19:27:00,71.5,65.0,29.76,WSW,241,2.3,2.3,80,0.03,RA,,0.04,23.0,WeatherDisplay:10.37,2013-06-02 23:27:00,
2013-06-02 19:32:00,70.9,65.1,29.76,WSW,241,0.0,0.0,82,0.03,BKN,,0.04,26.0,WeatherDisplay:10.37,2013-06-02 23:32:00,
2013-06-02 19:37:00,70.4,65.3,29.76,WSW,241,1.0,0.0,84,0.04,RA,,0.05,19.0,WeatherDisplay:10.37,2013-06-02 23:37:00,
2013-06-02 19:42:00,69.9,65.2,29.76,South,182,1.0,1.0,85,0.04,RA,,0.05,23.0,WeatherDisplay:10.37,2013-06-02 23:42:00,
2013-06-02 19:47:00,69.3,64.9,29.76,South,182,0.0,0.0,86,0.04,BKN,,0.05,35.0,WeatherDisplay:10.37,2013-06-02 23:47:00,
2013-06-02 19:52:00,68.9,64.9,29.76,South,182,0.0,0.0,87,0.04,BKN,,0.05,74.0,WeatherDisplay:10.37,2013-06-02 23:52:00,
2013-06-02 19:57:00,68.9,65.2,29.76,South,182,0.0,0.0,88,0.04,BKN,,0.05,51.0,WeatherDisplay:10.37,2013-06-02 23:57:00,
2013-06-02 20:02:00,68.8,65.4,29.76,South,182,1.0,0.0,89,0.04,BKN,,0.05,26.0,WeatherDisplay:10.37,2013-06-03 00:02:00,
2013-06-02 20:07:00,68.6,65.2,29.76,South,182,1.2,0.0,89,0.04,OVC,,0.05,28.0,WeatherDisplay:10.37,2013-06-03 00:07:00,
2013-06-02 20:12:00,68.3,65.3,29.77,South,182,0.0,0.0,90,0.04,OVC,,0.05,23.0,WeatherDisplay:10.37,2013-06-03 00:12:00,
2013-06-02 20:17:00,67.9,64.9,29.77,South,182,1.2,1.2,90,0.02,OVC,,0.05,21.0,WeatherDisplay:10.37,2013-06-03 00:17:00,
2013-06-02 20:22:00,67.6,64.9,29.77,South,173,0.0,0.0,91,0.01,OVC,,0.05,16.0,WeatherDisplay:10.37,2013-06-03 00:22:00,
2013-06-02 20:27:00,67.3,64.6,29.78,South,173,0.0,0.0,91,0.01,OVC,,0.05,12.0,WeatherDisplay:10.37,2013-06-03 00:27:00,
2013-06-02 20:32:00,67.1,64.4,29.78,South,173,0.0,0.0,91,0.01,OVC,,0.05,9.0,WeatherDisplay:10.37,2013-06-03 00:32:00,
2013-06-02 20:37:00,66.9,64.5,29.78,South,173,0.0,0.0,92,0.00,OVC,,0.05,7.0,WeatherDisplay:10.37,2013-06-03 00:37:00,
2013-06-02 20:42:00,66.6,64.2,29.77,South,173,0.0,0.0,92,0.00,OVC,,0.05,5.0,WeatherDisplay:10.37,2013-06-03 00:42:00,
2013-06-02 20:47:00,66.4,64.0,29.77,South,173,0.0,0.0,92,0.00,OVC,,0.05,0.0,WeatherDisplay:10.37,2013-06-03 00:47:00,
2013-06-02 20:52:00,66.1,63.7,29.77,South,173,0.0,0.0,92,0.00,OVC,,0.05,0.0,WeatherDisplay:10.37,2013-06-03 00:52:00,
2013-06-02 20:57:00,65.8,63.4,29.78,South,173,0.0,0.0,92,0.00,OVC,,0.05,0.0,WeatherDisplay:10.37,2013-06-03 00:57:00,
2013-06-02 21:02:00,65.6,63.2,29.78,South,173,0.0,0.0,92,0.00,SCT,,0.05,0.0,WeatherDisplay:10.37,2013-06-03 01:02:00,
2013-06-02 21:07:00,65.5,63.1,29.78,South,173,0.0,0.0,92,0.00,SCT,,0.05,0.0,WeatherDisplay:10.37,2013-06-03 01:07:00,
2013-06-02 21:12:00,65.2,62.8,29.78,South,173,0.0,0.0,92,0.00,SCT,,0.05,0.0,WeatherDisplay:10.37,2013-06-03 01:12:00,
2013-06-02 21:17:00,64.8,62.4,29.78,South,173,0.0,0.0,92,0.00,SCT,,0.05,0.0,WeatherDisplay:10.37,2013-06-03 01:17:00,
2013-06-02 21:22:00,64.5,62.1,29.78,WSW,242,1.2,0.0,92,0.00,SCT,,0.05,0.0,WeatherDisplay:10.37,2013-06-03 01:22:00,
2013-06-02 21:27:00,64.2,61.8,29.79,WSW,243,0.0,0.0,92,0.00,SCT,,0.05,0.0,WeatherDisplay:10.37,2013-06-03 01:27:00,
2013-06-02 21:32:00,63.7,61.3,29.79,WSW,243,0.0,0.0,92,0.00,SCT,,0.05,0.0,WeatherDisplay:10.37,2013-06-03 01:32:00,
2013-06-02 21:37:00,63.4,61.0,29.79,West,277,0.0,0.0,92,0.00,SCT,,0.05,0.0,WeatherDisplay:10.37,2013-06-03 01:37:00,
2013-06-02 21:42:00,63.1,60.7,29.80,West,277,0.0,0.0,92,0.00,SCT,,0.05,0.0,WeatherDisplay:10.37,2013-06-03 01:42:00,
2013-06-02 21:47:00,62.6,60.2,29.80,West,277,0.0,0.0,92,0.00,SCT,,0.05,0.0,WeatherDisplay:10.37,2013-06-03 01:47:00,
2013-06-02 21:52:00,62.3,59.9,29.80,West,277,0.0,0.0,92,0.00,SCT,,0.05,0.0,WeatherDisplay:10.37,2013-06-03 01:52:00,
2013-06-02 21:57:00,62.0,59.6,29.81,West,277,0.0,0.0,92,0.00,SCT,,0.05,0.0,WeatherDisplay:10.37,2013-06-03 01:57:00,
2013-06-02 22:02:00,61.8,59.8,29.81,West,277,0.0,0.0,93,0.00,SCT,,0.05,0.0,WeatherDisplay:10.37,2013-06-03 02:02:00,
2013-06-02 22:07:00,61.6,59.6,29.81,West,277,0.0,0.0,93,0.00,SCT,,0.05,0.0,WeatherDisplay:10.37,2013-06-03 02:07:00,
2013-06-02 22:12:00,61.5,59.5,29.81,West,277,1.2,0.0,93,0.00,SCT,,0.05,0.0,WeatherDisplay:10.37,2013-06-03 02:12:00,
2013-06-02 22:17:00,61.3,59.3,29.81,West,277,3.5,0.0,93,0.00,SCT,,0.05,0.0,WeatherDisplay:10.37,2013-06-03 02:17:00,
2013-06-02 22:22:00,61.3,59.3,29.81,West,276,1.2,0.0,93,0.00,CLR,,0.05,0.0,WeatherDisplay:10.37,2013-06-03 02:22:00,
2013-06-02 22:27:00,61.3,59.3,29.81,West,275,4.0,4.0,93,0.00,CLR,,0.05,0.0,WeatherDisplay:10.37,2013-06-03 02:27:00,
2013-06-02 22:32:00,61.2,59.2,29.81,West,275,1.0,0.0,93,0.00,CLR,,0.05,0.0,WeatherDisplay:10.37,2013-06-03 02:32:00,
2013-06-02 22:37:00,61.2,59.5,29.81,SW,217,0.0,0.0,94,0.00,CLR,,0.05,0.0,WeatherDisplay:10.37,2013-06-03 02:37:00,
2013-06-02 22:42:00,61.0,59.3,29.81,SW,217,0.0,0.0,94,0.00,CLR,,0.05,0.0,WeatherDisplay:10.37,2013-06-03 02:42:00,
2013-06-02 22:47:00,60.9,59.2,29.81,WSW,247,1.2,0.0,94,0.00,CLR,,0.05,0.0,WeatherDisplay:10.37,2013-06-03 02:47:00,
2013-06-02 22:52:00,60.7,59.0,29.81,WSW,240,1.2,0.0,94,0.00,CLR,,0.05,0.0,WeatherDisplay:10.37,2013-06-03 02:52:00,
2013-06-02 22:57:00,60.7,59.0,29.82,WSW,240,0.0,0.0,94,0.00,CLR,,0.05,0.0,WeatherDisplay:10.37,2013-06-03 02:57:00,
2013-06-02 23:03:00,60.7,59.0,29.82,WSW,240,1.2,0.0,94,0.00,CLR,,0.05,0.0,WeatherDisplay:10.37,2013-06-03 03:03:00,
2013-06-02 23:08:00,60.9,59.2,29.82,WSW,242,0.0,0.0,94,0.00,CLR,,0.05,0.0,WeatherDisplay:10.37,2013-06-03 03:08:00,
2013-06-02 23:13:00,60.9,59.2,29.81,WSW,243,0.0,0.0,94,0.00,BKN,,0.05,0.0,WeatherDisplay:10.37,2013-06-03 03:13:00,
2013-06-02 23:18:00,60.9,59.2,29.81,West,267,3.5,3.5,94,0.00,BKN,,0.05,0.0,WeatherDisplay:10.37,2013-06-03 03:18:00,
2013-06-02 23:23:00,60.9,59.2,29.81,West,267,1.2,0.0,94,0.00,BKN,,0.05,0.0,WeatherDisplay:10.37,2013-06-03 03:23:00,
2013-06-02 23:28:00,60.7,59.0,29.82,West,267,1.2,1.2,94,0.00,BKN,,0.05,0.0,WeatherDisplay:10.37,2013-06-03 03:28:00,
2013-06-02 23:33:00,60.5,58.8,29.82,West,267,0.0,0.0,94,0.00,BKN,,0.05,0.0,WeatherDisplay:10.37,2013-06-03 03:33:00,
2013-06-02 23:38:00,60.5,58.8,29.82,WSW,250,3.5,3.5,94,0.00,BKN,,0.05,0.0,WeatherDisplay:10.37,2013-06-03 03:38:00,
2013-06-02 23:43:00,60.5,58.8,29.83,SW,234,1.2,1.2,94,0.00,BKN,,0.05,0.0,WeatherDisplay:10.37,2013-06-03 03:43:00,
2013-06-02 23:48:00,60.7,59.3,29.83,West,274,3.5,3.5,95,0.00,BKN,,0.05,0.0,WeatherDisplay:10.37,2013-06-03 03:48:00,
2013-06-02 23:53:00,60.9,59.5,29.83,WNW,298,3.0,3.0,95,0.00,BKN,,0.05,0.0,WeatherDisplay:10.37,2013-06-03 03:53:00,
2013-06-02 23:58:00,61.0,59.3,29.83,WNW,291,4.0,4.0,94,0.00,BKN,,0.05,0.0,WeatherDisplay:10.37,2013-06-03 03:58:00,